Andover, SD

6:21 PM CDT on July 23, 2016 (GMT -0500)
APRSWXNET | | Change Station

Elev 1315 ft 45.44 °N, 98.09 °W | Updated 27 minutes ago

Mostly Cloudy
Mostly Cloudy
88 °F
Feels Like 103 °F
N
5
Wind Variable Wind from NW
Gusts 0.0 mph

Today
High -- | Low -- °F
--% Chance of Precip.
Yesterday
High -- | Low -- °F
Precip. -- in
Pressure 29.70 in
Visibility 10.0 miles
Clouds Mostly Cloudy 3400 ft
Mostly Cloudy 4600 ft
Heat Index 103 °F
Dew Point 79 °F
Humidity 75%
Rainfall in
Snow Depth Not available.
6:06 AM 9:09 PM
Waning Gibbous, 82% visible
METAR KABR 232253Z AUTO 33010KT 10SM BKN034 BKN046 31/23 A2973 RMK AO2 SLP056 T03060233
Pressure 29.70 in
Visibility 10.0 miles
Clouds Mostly Cloudy 3400 ft
Mostly Cloudy 4600 ft
Heat Index 103 °F
Dew Point 79 °F
Humidity 75%
Rainfall in
Snow Depth Not available.
6:06 AM 9:09 PM
Waning Gibbous, 82% visible
METAR KABR 232253Z AUTO 33010KT 10SM BKN034 BKN046 31/23 A2973 RMK AO2 SLP056 T03060233

10-Day Weather Forecast

Almanac

Astronomy

Jul. 23, 2016 Rise Set
Actual Time
Civil Twilight
Nautical Twilight
Astronomical Twilight
Moon
Length of Visible Light
Length of Day
Tomorrow will be .
, % of the Moon is Illuminated

Today's Extremes

State Highs State Lows

Community

WunderPhotos

Upload Photos

1,926,971 photos uploaded!

WunderBlog® & News

Nearby

Air Quality

  Air Quality AQ Index Pollutant
Not available.

Snow Depth

Station Depth Elevation

Earthquake Activity

City Distance Mag. Time & Date
Minimum magnitude displayed is 2.5.

Coastal Water Temperatures

Place Temperature

Stations

Nearby Weather Stations

Station Location Temp. Windchill Dew Point Humidity Wind Precip. Elev Updated Type
                   

Watches & Warnings

There are currently no watches in effect.